sensor_id;sensor_type;location;lat;lon;timestamp;P1;durP1;ratioP1;P2;durP2;ratioP2
54743;SDS011;40639;53.170;6.728;2023-04-15T00:02:15;9.40;;;4.65;;
54743;SDS011;40639;53.170;6.728;2023-04-15T00:04:42;10.60;;;5.07;;
54743;SDS011;40639;53.170;6.728;2023-04-15T00:07:08;7.97;;;4.43;;
54743;SDS011;40639;53.170;6.728;2023-04-15T00:09:35;9.95;;;4.72;;
54743;SDS011;40639;53.170;6.728;2023-04-15T00:12:01;8.40;;;4.60;;
54743;SDS011;40639;53.170;6.728;2023-04-15T00:14:27;8.77;;;4.50;;
54743;SDS011;40639;53.170;6.728;2023-04-15T00:16:54;8.30;;;4.35;;
54743;SDS011;40639;53.170;6.728;2023-04-15T00:19:22;11.38;;;4.72;;
54743;SDS011;40639;53.170;6.728;2023-04-15T00:21:48;10.18;;;5.15;;
54743;SDS011;40639;53.170;6.728;2023-04-15T00:24:15;8.68;;;4.97;;
54743;SDS011;40639;53.170;6.728;2023-04-15T00:26:41;8.40;;;5.10;;
54743;SDS011;40639;53.170;6.728;2023-04-15T00:29:07;10.55;;;5.32;;
54743;SDS011;40639;53.170;6.728;2023-04-15T00:31:34;13.15;;;4.95;;
54743;SDS011;40639;53.170;6.728;2023-04-15T00:34:00;8.63;;;5.20;;
54743;SDS011;40639;53.170;6.728;2023-04-15T00:36:27;11.85;;;5.95;;
54743;SDS011;40639;53.170;6.728;2023-04-15T00:38:53;9.02;;;4.68;;
54743;SDS011;40639;53.170;6.728;2023-04-15T00:41:19;11.05;;;5.25;;
54743;SDS011;40639;53.170;6.728;2023-04-15T00:43:47;11.75;;;5.45;;
54743;SDS011;40639;53.170;6.728;2023-04-15T00:46:13;9.93;;;5.55;;
54743;SDS011;40639;53.170;6.728;2023-04-15T00:48:40;11.15;;;5.47;;
54743;SDS011;40639;53.170;6.728;2023-04-15T00:51:07;10.45;;;5.60;;
54743;SDS011;40639;53.170;6.728;2023-04-15T00:53:33;8.60;;;5.00;;
54743;SDS011;40639;53.170;6.728;2023-04-15T00:55:59;8.73;;;5.15;;
54743;SDS011;40639;53.170;6.728;2023-04-15T00:58:26;9.85;;;5.00;;
54743;SDS011;40639;53.170;6.728;2023-04-15T01:00:52;12.73;;;6.15;;
54743;SDS011;40639;53.170;6.728;2023-04-15T01:03:19;12.68;;;6.22;;
54743;SDS011;40639;53.170;6.728;2023-04-15T01:05:45;11.40;;;5.63;;
54743;SDS011;40639;53.170;6.728;2023-04-15T01:08:11;10.50;;;5.95;;
54743;SDS011;40639;53.170;6.728;2023-04-15T01:10:38;11.68;;;6.63;;
54743;SDS011;40639;53.170;6.728;2023-04-15T01:13:04;8.93;;;5.65;;
54743;SDS011;40639;53.170;6.728;2023-04-15T01:15:30;10.63;;;5.65;;
54743;SDS011;40639;53.170;6.728;2023-04-15T01:18:00;9.90;;;5.40;;
54743;SDS011;40639;53.170;6.728;2023-04-15T01:20:28;10.93;;;5.47;;
54743;SDS011;40639;53.170;6.728;2023-04-15T01:22:54;8.90;;;4.68;;
54743;SDS011;40639;53.170;6.728;2023-04-15T01:25:33;11.18;;;6.20;;
54743;SDS011;40639;53.170;6.728;2023-04-15T01:27:59;9.73;;;5.63;;
54743;SDS011;40639;53.170;6.728;2023-04-15T01:30:26;9.50;;;5.70;;
54743;SDS011;40639;53.170;6.728;2023-04-15T01:32:52;10.18;;;5.22;;
54743;SDS011;40639;53.170;6.728;2023-04-15T01:35:18;9.23;;;5.35;;
54743;SDS011;40639;53.170;6.728;2023-04-15T01:37:45;9.55;;;5.72;;
54743;SDS011;40639;53.170;6.728;2023-04-15T01:40:12;9.75;;;5.57;;
54743;SDS011;40639;53.170;6.728;2023-04-15T01:42:39;15.05;;;6.15;;
54743;SDS011;40639;53.170;6.728;2023-04-15T01:45:05;10.52;;;5.13;;
54743;SDS011;40639;53.170;6.728;2023-04-15T01:47:32;9.52;;;5.60;;
54743;SDS011;40639;53.170;6.728;2023-04-15T01:49:58;8.25;;;5.20;;
54743;SDS011;40639;53.170;6.728;2023-04-15T01:52:24;10.52;;;5.70;;
54743;SDS011;40639;53.170;6.728;2023-04-15T01:54:50;11.75;;;6.22;;
54743;SDS011;40639;53.170;6.728;2023-04-15T01:57:16;8.82;;;5.40;;
54743;SDS011;40639;53.170;6.728;2023-04-15T01:59:42;11.50;;;5.28;;
54743;SDS011;40639;53.170;6.728;2023-04-15T02:02:08;9.43;;;5.25;;
54743;SDS011;40639;53.170;6.728;2023-04-15T02:04:34;11.40;;;6.03;;
54743;SDS011;40639;53.170;6.728;2023-04-15T02:07:00;8.77;;;5.93;;
54743;SDS011;40639;53.170;6.728;2023-04-15T02:09:27;11.30;;;6.80;;
54743;SDS011;40639;53.170;6.728;2023-04-15T02:11:53;12.27;;;6.25;;
54743;SDS011;40639;53.170;6.728;2023-04-15T02:14:19;11.40;;;6.18;;
54743;SDS011;40639;53.170;6.728;2023-04-15T02:16:45;11.05;;;6.38;;
54743;SDS011;40639;53.170;6.728;2023-04-15T02:19:11;11.02;;;6.25;;
54743;SDS011;40639;53.170;6.728;2023-04-15T02:21:38;13.35;;;6.38;;
54743;SDS011;40639;53.170;6.728;2023-04-15T02:24:04;12.43;;;7.57;;
54743;SDS011;40639;53.170;6.728;2023-04-15T02:26:30;10.30;;;6.68;;
54743;SDS011;40639;53.170;6.728;2023-04-15T02:28:57;13.55;;;7.10;;
54743;SDS011;40639;53.170;6.728;2023-04-15T02:31:24;10.60;;;6.35;;
54743;SDS011;40639;53.170;6.728;2023-04-15T02:33:50;13.60;;;6.70;;
54743;SDS011;40639;53.170;6.728;2023-04-15T02:36:16;10.63;;;6.38;;
54743;SDS011;40639;53.170;6.728;2023-04-15T02:38:42;12.00;;;6.57;;
54743;SDS011;40639;53.170;6.728;2023-04-15T02:41:09;11.85;;;6.25;;
54743;SDS011;40639;53.170;6.728;2023-04-15T02:43:35;10.85;;;7.10;;
54743;SDS011;40639;53.170;6.728;2023-04-15T02:46:02;12.30;;;7.32;;
54743;SDS011;40639;53.170;6.728;2023-04-15T02:48:28;13.73;;;6.75;;
54743;SDS011;40639;53.170;6.728;2023-04-15T02:51:09;13.00;;;7.47;;
54743;SDS011;40639;53.170;6.728;2023-04-15T02:53:35;12.68;;;7.15;;
54743;SDS011;40639;53.170;6.728;2023-04-15T02:56:01;13.13;;;6.88;;
54743;SDS011;40639;53.170;6.728;2023-04-15T02:58:27;12.20;;;7.72;;
54743;SDS011;40639;53.170;6.728;2023-04-15T03:00:54;13.32;;;7.60;;
54743;SDS011;40639;53.170;6.728;2023-04-15T03:03:20;13.50;;;7.85;;
54743;SDS011;40639;53.170;6.728;2023-04-15T03:05:46;14.48;;;7.03;;
54743;SDS011;40639;53.170;6.728;2023-04-15T03:08:12;12.50;;;7.32;;
54743;SDS011;40639;53.170;6.728;2023-04-15T03:10:39;11.70;;;6.95;;
54743;SDS011;40639;53.170;6.728;2023-04-15T03:13:05;10.63;;;6.50;;
54743;SDS011;40639;53.170;6.728;2023-04-15T03:15:31;10.77;;;6.47;;
54743;SDS011;40639;53.170;6.728;2023-04-15T03:17:57;11.52;;;7.30;;
54743;SDS011;40639;53.170;6.728;2023-04-15T03:20:23;13.45;;;7.47;;
54743;SDS011;40639;53.170;6.728;2023-04-15T03:22:50;11.35;;;6.97;;
54743;SDS011;40639;53.170;6.728;2023-04-15T03:25:16;11.40;;;7.05;;
54743;SDS011;40639;53.170;6.728;2023-04-15T03:27:42;13.15;;;6.95;;
54743;SDS011;40639;53.170;6.728;2023-04-15T03:30:08;10.13;;;6.38;;
54743;SDS011;40639;53.170;6.728;2023-04-15T03:32:34;11.50;;;6.47;;
54743;SDS011;40639;53.170;6.728;2023-04-15T03:35:00;12.25;;;6.88;;
54743;SDS011;40639;53.170;6.728;2023-04-15T03:37:27;12.10;;;7.13;;
54743;SDS011;40639;53.170;6.728;2023-04-15T03:39:53;11.82;;;6.78;;
54743;SDS011;40639;53.170;6.728;2023-04-15T03:42:19;9.80;;;6.40;;
54743;SDS011;40639;53.170;6.728;2023-04-15T03:44:45;9.75;;;6.55;;
54743;SDS011;40639;53.170;6.728;2023-04-15T03:47:11;9.68;;;6.28;;
54743;SDS011;40639;53.170;6.728;2023-04-15T03:49:37;11.27;;;6.05;;
54743;SDS011;40639;53.170;6.728;2023-04-15T03:52:04;12.80;;;6.95;;
54743;SDS011;40639;53.170;6.728;2023-04-15T03:54:30;12.82;;;6.30;;
54743;SDS011;40639;53.170;6.728;2023-04-15T03:56:56;10.63;;;6.35;;
54743;SDS011;40639;53.170;6.728;2023-04-15T03:59:22;10.77;;;6.43;;
54743;SDS011;40639;53.170;6.728;2023-04-15T04:01:48;11.45;;;6.85;;
54743;SDS011;40639;53.170;6.728;2023-04-15T04:04:15;12.23;;;6.63;;
54743;SDS011;40639;53.170;6.728;2023-04-15T04:06:41;9.23;;;5.82;;
54743;SDS011;40639;53.170;6.728;2023-04-15T04:09:07;10.45;;;6.07;;
54743;SDS011;40639;53.170;6.728;2023-04-15T04:11:33;11.77;;;7.10;;
54743;SDS011;40639;53.170;6.728;2023-04-15T04:13:59;12.82;;;7.15;;
54743;SDS011;40639;53.170;6.728;2023-04-15T04:16:25;13.20;;;7.03;;
54743;SDS011;40639;53.170;6.728;2023-04-15T04:18:51;12.88;;;7.68;;
54743;SDS011;40639;53.170;6.728;2023-04-15T04:21:17;12.48;;;7.38;;
54743;SDS011;40639;53.170;6.728;2023-04-15T04:23:45;12.05;;;7.60;;
54743;SDS011;40639;53.170;6.728;2023-04-15T04:26:11;13.27;;;7.95;;
54743;SDS011;40639;53.170;6.728;2023-04-15T04:28:37;12.32;;;7.72;;
54743;SDS011;40639;53.170;6.728;2023-04-15T04:31:05;17.38;;;8.60;;
54743;SDS011;40639;53.170;6.728;2023-04-15T04:33:31;15.25;;;9.05;;
54743;SDS011;40639;53.170;6.728;2023-04-15T04:35:57;15.85;;;8.73;;
54743;SDS011;40639;53.170;6.728;2023-04-15T04:38:24;14.18;;;8.13;;
54743;SDS011;40639;53.170;6.728;2023-04-15T04:40:50;15.60;;;8.48;;
54743;SDS011;40639;53.170;6.728;2023-04-15T04:43:16;14.35;;;8.57;;
54743;SDS011;40639;53.170;6.728;2023-04-15T04:45:42;15.55;;;8.52;;
54743;SDS011;40639;53.170;6.728;2023-04-15T04:48:08;15.55;;;8.27;;
54743;SDS011;40639;53.170;6.728;2023-04-15T04:50:35;14.27;;;7.82;;
54743;SDS011;40639;53.170;6.728;2023-04-15T04:53:01;13.73;;;8.18;;
54743;SDS011;40639;53.170;6.728;2023-04-15T04:55:27;15.05;;;8.32;;
54743;SDS011;40639;53.170;6.728;2023-04-15T04:57:53;17.67;;;8.77;;
54743;SDS011;40639;53.170;6.728;2023-04-15T05:00:19;17.02;;;9.30;;
54743;SDS011;40639;53.170;6.728;2023-04-15T05:02:46;15.40;;;8.35;;
54743;SDS011;40639;53.170;6.728;2023-04-15T05:05:12;14.57;;;8.30;;
54743;SDS011;40639;53.170;6.728;2023-04-15T05:07:38;15.00;;;8.15;;
54743;SDS011;40639;53.170;6.728;2023-04-15T05:10:04;13.55;;;8.23;;
54743;SDS011;40639;53.170;6.728;2023-04-15T05:12:31;14.00;;;8.55;;
54743;SDS011;40639;53.170;6.728;2023-04-15T05:14:57;13.40;;;8.02;;
54743;SDS011;40639;53.170;6.728;2023-04-15T05:17:23;13.60;;;8.18;;
54743;SDS011;40639;53.170;6.728;2023-04-15T05:19:49;14.98;;;7.68;;
54743;SDS011;40639;53.170;6.728;2023-04-15T05:22:15;12.48;;;7.50;;
54743;SDS011;40639;53.170;6.728;2023-04-15T05:24:45;11.23;;;6.88;;
54743;SDS011;40639;53.170;6.728;2023-04-15T05:27:11;13.90;;;7.82;;
54743;SDS011;40639;53.170;6.728;2023-04-15T05:29:37;12.98;;;7.50;;
54743;SDS011;40639;53.170;6.728;2023-04-15T05:32:03;11.00;;;6.95;;
54743;SDS011;40639;53.170;6.728;2023-04-15T05:34:29;14.32;;;7.57;;
54743;SDS011;40639;53.170;6.728;2023-04-15T05:36:55;13.02;;;8.15;;
54743;SDS011;40639;53.170;6.728;2023-04-15T05:39:22;13.93;;;8.20;;
54743;SDS011;40639;53.170;6.728;2023-04-15T05:41:48;15.55;;;8.70;;
54743;SDS011;40639;53.170;6.728;2023-04-15T05:44:14;12.52;;;7.80;;
54743;SDS011;40639;53.170;6.728;2023-04-15T05:46:40;11.80;;;7.40;;
54743;SDS011;40639;53.170;6.728;2023-04-15T05:49:07;13.18;;;7.97;;
54743;SDS011;40639;53.170;6.728;2023-04-15T05:51:33;13.65;;;7.90;;
54743;SDS011;40639;53.170;6.728;2023-04-15T05:54:00;13.35;;;8.00;;
54743;SDS011;40639;53.170;6.728;2023-04-15T05:56:26;13.77;;;7.75;;
54743;SDS011;40639;53.170;6.728;2023-04-15T05:58:52;13.40;;;7.88;;
54743;SDS011;40639;53.170;6.728;2023-04-15T06:01:18;15.35;;;8.60;;
54743;SDS011;40639;53.170;6.728;2023-04-15T06:03:44;14.75;;;8.15;;
54743;SDS011;40639;53.170;6.728;2023-04-15T06:06:10;14.25;;;7.63;;
54743;SDS011;40639;53.170;6.728;2023-04-15T06:08:37;14.80;;;8.25;;
54743;SDS011;40639;53.170;6.728;2023-04-15T06:11:03;13.68;;;7.65;;
54743;SDS011;40639;53.170;6.728;2023-04-15T06:13:30;14.25;;;8.25;;
54743;SDS011;40639;53.170;6.728;2023-04-15T06:15:56;14.18;;;8.10;;
54743;SDS011;40639;53.170;6.728;2023-04-15T06:18:22;16.65;;;8.82;;
54743;SDS011;40639;53.170;6.728;2023-04-15T06:20:48;15.90;;;8.63;;
54743;SDS011;40639;53.170;6.728;2023-04-15T06:23:14;14.05;;;8.45;;
54743;SDS011;40639;53.170;6.728;2023-04-15T06:25:41;15.52;;;8.73;;
54743;SDS011;40639;53.170;6.728;2023-04-15T06:28:07;14.13;;;7.75;;
54743;SDS011;40639;53.170;6.728;2023-04-15T06:30:33;13.68;;;7.90;;
54743;SDS011;40639;53.170;6.728;2023-04-15T06:33:00;14.57;;;8.07;;
54743;SDS011;40639;53.170;6.728;2023-04-15T06:35:29;18.50;;;8.48;;
54743;SDS011;40639;53.170;6.728;2023-04-15T06:37:55;16.00;;;8.05;;
54743;SDS011;40639;53.170;6.728;2023-04-15T06:40:21;13.18;;;8.15;;
54743;SDS011;40639;53.170;6.728;2023-04-15T06:42:47;15.35;;;8.20;;
54743;SDS011;40639;53.170;6.728;2023-04-15T06:45:14;14.80;;;7.80;;
54743;SDS011;40639;53.170;6.728;2023-04-15T06:47:40;12.43;;;7.47;;
54743;SDS011;40639;53.170;6.728;2023-04-15T06:50:06;10.65;;;6.72;;
54743;SDS011;40639;53.170;6.728;2023-04-15T06:52:34;12.85;;;7.25;;
54743;SDS011;40639;53.170;6.728;2023-04-15T06:55:00;13.70;;;7.13;;
54743;SDS011;40639;53.170;6.728;2023-04-15T06:57:26;13.93;;;7.70;;
54743;SDS011;40639;53.170;6.728;2023-04-15T06:59:53;12.70;;;6.78;;
54743;SDS011;40639;53.170;6.728;2023-04-15T07:02:19;12.27;;;6.72;;
54743;SDS011;40639;53.170;6.728;2023-04-15T07:04:45;11.43;;;7.20;;
54743;SDS011;40639;53.170;6.728;2023-04-15T07:07:12;10.23;;;6.55;;
54743;SDS011;40639;53.170;6.728;2023-04-15T07:09:39;11.90;;;7.15;;
54743;SDS011;40639;53.170;6.728;2023-04-15T07:12:05;15.60;;;7.40;;
54743;SDS011;40639;53.170;6.728;2023-04-15T07:14:31;11.80;;;6.60;;
54743;SDS011;40639;53.170;6.728;2023-04-15T07:16:57;12.73;;;6.88;;
54743;SDS011;40639;53.170;6.728;2023-04-15T07:19:23;11.48;;;6.47;;
54743;SDS011;40639;53.170;6.728;2023-04-15T07:21:50;12.23;;;6.25;;
54743;SDS011;40639;53.170;6.728;2023-04-15T07:24:16;10.18;;;5.47;;
54743;SDS011;40639;53.170;6.728;2023-04-15T07:26:44;11.88;;;6.20;;
54743;SDS011;40639;53.170;6.728;2023-04-15T07:29:10;12.13;;;6.18;;
54743;SDS011;40639;53.170;6.728;2023-04-15T07:31:36;10.52;;;5.90;;
54743;SDS011;40639;53.170;6.728;2023-04-15T07:34:02;10.93;;;5.90;;
54743;SDS011;40639;53.170;6.728;2023-04-15T07:36:29;12.38;;;5.95;;
54743;SDS011;40639;53.170;6.728;2023-04-15T07:38:55;10.30;;;5.35;;
54743;SDS011;40639;53.170;6.728;2023-04-15T07:41:22;9.73;;;5.32;;
54743;SDS011;40639;53.170;6.728;2023-04-15T07:43:48;10.70;;;5.43;;
54743;SDS011;40639;53.170;6.728;2023-04-15T07:46:14;8.02;;;4.88;;
54743;SDS011;40639;53.170;6.728;2023-04-15T07:48:40;9.82;;;4.88;;
54743;SDS011;40639;53.170;6.728;2023-04-15T07:51:06;10.55;;;4.70;;
54743;SDS011;40639;53.170;6.728;2023-04-15T07:53:34;8.00;;;4.60;;
54743;SDS011;40639;53.170;6.728;2023-04-15T07:56:01;7.50;;;4.20;;
54743;SDS011;40639;53.170;6.728;2023-04-15T07:58:27;9.93;;;4.85;;
54743;SDS011;40639;53.170;6.728;2023-04-15T08:00:53;7.30;;;4.72;;
54743;SDS011;40639;53.170;6.728;2023-04-15T08:03:20;7.68;;;4.40;;
54743;SDS011;40639;53.170;6.728;2023-04-15T08:05:46;9.75;;;4.45;;
54743;SDS011;40639;53.170;6.728;2023-04-15T08:08:13;7.15;;;4.05;;
54743;SDS011;40639;53.170;6.728;2023-04-15T08:10:39;6.95;;;4.35;;
54743;SDS011;40639;53.170;6.728;2023-04-15T08:13:05;10.15;;;4.07;;
54743;SDS011;40639;53.170;6.728;2023-04-15T08:15:32;8.40;;;3.65;;
54743;SDS011;40639;53.170;6.728;2023-04-15T08:17:58;9.05;;;3.63;;
54743;SDS011;40639;53.170;6.728;2023-04-15T08:20:25;6.13;;;3.15;;
54743;SDS011;40639;53.170;6.728;2023-04-15T08:22:51;6.93;;;3.60;;
54743;SDS011;40639;53.170;6.728;2023-04-15T08:25:18;6.07;;;3.22;;
54743;SDS011;40639;53.170;6.728;2023-04-15T08:27:44;6.70;;;3.20;;
54743;SDS011;40639;53.170;6.728;2023-04-15T08:30:10;6.95;;;3.35;;
54743;SDS011;40639;53.170;6.728;2023-04-15T08:32:37;5.93;;;3.13;;
54743;SDS011;40639;53.170;6.728;2023-04-15T08:35:03;7.18;;;3.30;;
54743;SDS011;40639;53.170;6.728;2023-04-15T08:37:29;6.38;;;3.38;;
54743;SDS011;40639;53.170;6.728;2023-04-15T08:39:56;5.88;;;3.25;;
54743;SDS011;40639;53.170;6.728;2023-04-15T08:42:25;6.25;;;3.40;;
54743;SDS011;40639;53.170;6.728;2023-04-15T08:44:52;7.45;;;3.70;;
54743;SDS011;40639;53.170;6.728;2023-04-15T08:47:20;7.70;;;3.25;;
54743;SDS011;40639;53.170;6.728;2023-04-15T08:49:46;5.20;;;3.08;;
54743;SDS011;40639;53.170;6.728;2023-04-15T08:52:17;4.60;;;2.40;;
54743;SDS011;40639;53.170;6.728;2023-04-15T08:54:44;5.25;;;2.58;;
54743;SDS011;40639;53.170;6.728;2023-04-15T08:57:10;4.10;;;2.03;;
54743;SDS011;40639;53.170;6.728;2023-04-15T08:59:37;4.93;;;2.08;;
54743;SDS011;40639;53.170;6.728;2023-04-15T09:02:04;5.97;;;2.03;;
54743;SDS011;40639;53.170;6.728;2023-04-15T09:04:30;4.00;;;1.75;;
54743;SDS011;40639;53.170;6.728;2023-04-15T09:06:56;4.07;;;1.45;;
54743;SDS011;40639;53.170;6.728;2023-04-15T09:09:23;3.35;;;2.08;;
54743;SDS011;40639;53.170;6.728;2023-04-15T09:11:49;2.80;;;1.60;;
54743;SDS011;40639;53.170;6.728;2023-04-15T09:14:15;2.55;;;1.50;;
54743;SDS011;40639;53.170;6.728;2023-04-15T09:16:58;2.65;;;1.42;;
54743;SDS011;40639;53.170;6.728;2023-04-15T09:19:24;2.30;;;1.63;;
54743;SDS011;40639;53.170;6.728;2023-04-15T09:21:52;2.15;;;1.42;;
54743;SDS011;40639;53.170;6.728;2023-04-15T09:24:20;4.25;;;1.70;;
54743;SDS011;40639;53.170;6.728;2023-04-15T09:26:47;2.55;;;1.70;;
54743;SDS011;40639;53.170;6.728;2023-04-15T09:29:16;2.45;;;1.38;;
54743;SDS011;40639;53.170;6.728;2023-04-15T09:31:43;3.45;;;1.90;;
54743;SDS011;40639;53.170;6.728;2023-04-15T09:34:09;4.00;;;1.63;;
54743;SDS011;40639;53.170;6.728;2023-04-15T09:39:11;4.65;;;1.90;;
54743;SDS011;40639;53.170;6.728;2023-04-15T09:41:37;4.25;;;2.03;;
54743;SDS011;40639;53.170;6.728;2023-04-15T09:44:03;3.97;;;1.50;;
54743;SDS011;40639;53.170;6.728;2023-04-15T09:46:39;3.45;;;1.60;;
54743;SDS011;40639;53.170;6.728;2023-04-15T09:49:06;3.38;;;1.55;;
54743;SDS011;40639;53.170;6.728;2023-04-15T09:51:33;3.17;;;2.00;;
54743;SDS011;40639;53.170;6.728;2023-04-15T09:53:59;5.15;;;2.05;;
54743;SDS011;40639;53.170;6.728;2023-04-15T09:56:31;3.10;;;1.83;;
54743;SDS011;40639;53.170;6.728;2023-04-15T09:58:57;2.70;;;1.52;;
54743;SDS011;40639;53.170;6.728;2023-04-15T10:01:23;4.25;;;1.83;;
54743;SDS011;40639;53.170;6.728;2023-04-15T10:03:49;3.03;;;1.60;;
54743;SDS011;40639;53.170;6.728;2023-04-15T10:06:16;3.22;;;1.55;;
54743;SDS011;40639;53.170;6.728;2023-04-15T10:08:43;3.25;;;1.45;;
54743;SDS011;40639;53.170;6.728;2023-04-15T10:11:10;3.92;;;1.60;;
54743;SDS011;40639;53.170;6.728;2023-04-15T10:13:36;4.35;;;1.67;;
54743;SDS011;40639;53.170;6.728;2023-04-15T10:16:04;4.38;;;1.52;;
54743;SDS011;40639;53.170;6.728;2023-04-15T10:18:33;3.78;;;1.27;;
54743;SDS011;40639;53.170;6.728;2023-04-15T10:21:00;5.00;;;1.77;;
54743;SDS011;40639;53.170;6.728;2023-04-15T10:23:26;3.47;;;1.50;;
54743;SDS011;40639;53.170;6.728;2023-04-15T10:25:53;6.40;;;1.60;;
54743;SDS011;40639;53.170;6.728;2023-04-15T10:28:19;5.78;;;1.80;;
54743;SDS011;40639;53.170;6.728;2023-04-15T10:30:49;3.97;;;1.50;;
54743;SDS011;40639;53.170;6.728;2023-04-15T10:33:17;6.75;;;1.83;;
54743;SDS011;40639;53.170;6.728;2023-04-15T10:35:44;2.80;;;1.50;;
54743;SDS011;40639;53.170;6.728;2023-04-15T10:38:31;6.82;;;2.28;;
54743;SDS011;40639;53.170;6.728;2023-04-15T10:43:51;3.50;;;1.80;;
54743;SDS011;40639;53.170;6.728;2023-04-15T10:46:33;7.47;;;2.35;;
54743;SDS011;40639;53.170;6.728;2023-04-15T10:49:05;3.83;;;1.83;;
54743;SDS011;40639;53.170;6.728;2023-04-15T10:51:32;2.70;;;1.80;;
54743;SDS011;40639;53.170;6.728;2023-04-15T10:53:58;7.43;;;2.30;;
54743;SDS011;40639;53.170;6.728;2023-04-15T10:56:25;6.78;;;2.30;;
54743;SDS011;40639;53.170;6.728;2023-04-15T10:58:52;6.18;;;2.40;;
54743;SDS011;40639;53.170;6.728;2023-04-15T11:01:19;7.10;;;2.30;;
54743;SDS011;40639;53.170;6.728;2023-04-15T11:03:47;5.63;;;2.47;;
54743;SDS011;40639;53.170;6.728;2023-04-15T11:06:15;3.85;;;2.10;;
54743;SDS011;40639;53.170;6.728;2023-04-15T11:11:19;6.80;;;2.45;;
54743;SDS011;40639;53.170;6.728;2023-04-15T11:13:49;4.53;;;2.10;;
54743;SDS011;40639;53.170;6.728;2023-04-15T11:16:19;4.80;;;1.98;;
54743;SDS011;40639;53.170;6.728;2023-04-15T11:18:54;9.02;;;2.08;;
54743;SDS011;40639;53.170;6.728;2023-04-15T11:21:23;5.93;;;2.53;;
54743;SDS011;40639;53.170;6.728;2023-04-15T11:23:50;9.80;;;4.47;;
54743;SDS011;40639;53.170;6.728;2023-04-15T11:26:16;24.50;;;10.55;;
54743;SDS011;40639;53.170;6.728;2023-04-15T11:28:43;6.25;;;2.75;;
54743;SDS011;40639;53.170;6.728;2023-04-15T11:31:12;5.43;;;1.88;;
54743;SDS011;40639;53.170;6.728;2023-04-15T11:33:45;4.10;;;2.03;;
54743;SDS011;40639;53.170;6.728;2023-04-15T11:36:11;5.72;;;1.98;;
54743;SDS011;40639;53.170;6.728;2023-04-15T11:38:41;3.03;;;1.77;;
54743;SDS011;40639;53.170;6.728;2023-04-15T11:41:07;4.97;;;1.90;;
54743;SDS011;40639;53.170;6.728;2023-04-15T11:43:33;5.47;;;2.20;;
54743;SDS011;40639;53.170;6.728;2023-04-15T11:46:00;6.07;;;2.17;;
54743;SDS011;40639;53.170;6.728;2023-04-15T11:48:30;5.95;;;1.98;;
54743;SDS011;40639;53.170;6.728;2023-04-15T11:50:58;6.20;;;1.90;;
54743;SDS011;40639;53.170;6.728;2023-04-15T11:53:24;8.57;;;2.75;;
54743;SDS011;40639;53.170;6.728;2023-04-15T11:56:01;5.32;;;2.35;;
54743;SDS011;40639;53.170;6.728;2023-04-15T11:58:27;7.38;;;2.40;;
54743;SDS011;40639;53.170;6.728;2023-04-15T12:00:57;8.18;;;1.90;;
54743;SDS011;40639;53.170;6.728;2023-04-15T12:06:12;8.00;;;2.28;;
54743;SDS011;40639;53.170;6.728;2023-04-15T12:11:41;4.03;;;1.73;;
54743;SDS011;40639;53.170;6.728;2023-04-15T12:16:43;6.70;;;1.67;;
54743;SDS011;40639;53.170;6.728;2023-04-15T12:19:11;6.30;;;1.90;;
54743;SDS011;40639;53.170;6.728;2023-04-15T12:21:38;5.88;;;1.58;;
54743;SDS011;40639;53.170;6.728;2023-04-15T12:24:06;4.05;;;1.90;;
54743;SDS011;40639;53.170;6.728;2023-04-15T12:26:37;6.20;;;2.00;;
54743;SDS011;40639;53.170;6.728;2023-04-15T12:29:04;5.13;;;1.88;;
54743;SDS011;40639;53.170;6.728;2023-04-15T12:31:32;5.55;;;2.00;;
54743;SDS011;40639;53.170;6.728;2023-04-15T12:33:58;6.68;;;2.38;;
54743;SDS011;40639;53.170;6.728;2023-04-15T12:36:25;8.32;;;2.05;;
54743;SDS011;40639;53.170;6.728;2023-04-15T12:38:52;5.18;;;1.92;;
54743;SDS011;40639;53.170;6.728;2023-04-15T12:41:19;6.93;;;2.13;;
54743;SDS011;40639;53.170;6.728;2023-04-15T12:43:46;7.43;;;2.33;;
54743;SDS011;40639;53.170;6.728;2023-04-15T12:46:12;6.00;;;2.20;;
54743;SDS011;40639;53.170;6.728;2023-04-15T12:48:39;6.00;;;1.83;;
54743;SDS011;40639;53.170;6.728;2023-04-15T12:51:05;5.57;;;1.80;;
54743;SDS011;40639;53.170;6.728;2023-04-15T12:53:31;8.43;;;2.17;;
54743;SDS011;40639;53.170;6.728;2023-04-15T12:55:59;6.57;;;2.15;;
54743;SDS011;40639;53.170;6.728;2023-04-15T12:58:25;7.10;;;2.25;;
54743;SDS011;40639;53.170;6.728;2023-04-15T13:00:51;6.47;;;2.80;;
54743;SDS011;40639;53.170;6.728;2023-04-15T13:03:17;5.88;;;2.03;;
54743;SDS011;40639;53.170;6.728;2023-04-15T13:05:43;9.18;;;2.25;;
54743;SDS011;40639;53.170;6.728;2023-04-15T13:08:09;6.43;;;2.30;;
54743;SDS011;40639;53.170;6.728;2023-04-15T13:10:36;7.20;;;2.42;;
54743;SDS011;40639;53.170;6.728;2023-04-15T13:13:02;5.35;;;1.77;;
54743;SDS011;40639;53.170;6.728;2023-04-15T13:15:29;7.18;;;2.20;;
54743;SDS011;40639;53.170;6.728;2023-04-15T13:17:55;13.25;;;2.35;;
54743;SDS011;40639;53.170;6.728;2023-04-15T13:20:21;5.95;;;2.22;;
54743;SDS011;40639;53.170;6.728;2023-04-15T13:22:47;6.47;;;2.25;;
54743;SDS011;40639;53.170;6.728;2023-04-15T13:25:14;6.88;;;1.95;;
54743;SDS011;40639;53.170;6.728;2023-04-15T13:27:40;4.60;;;1.92;;
54743;SDS011;40639;53.170;6.728;2023-04-15T13:30:06;6.05;;;2.75;;
54743;SDS011;40639;53.170;6.728;2023-04-15T13:32:33;8.77;;;2.40;;
54743;SDS011;40639;53.170;6.728;2023-04-15T13:34:59;9.68;;;2.28;;
54743;SDS011;40639;53.170;6.728;2023-04-15T13:37:26;5.15;;;2.05;;
54743;SDS011;40639;53.170;6.728;2023-04-15T13:39:53;12.82;;;2.72;;
54743;SDS011;40639;53.170;6.728;2023-04-15T13:42:20;6.75;;;2.38;;
54743;SDS011;40639;53.170;6.728;2023-04-15T13:44:46;9.40;;;2.20;;
54743;SDS011;40639;53.170;6.728;2023-04-15T13:47:12;8.65;;;1.88;;
54743;SDS011;40639;53.170;6.728;2023-04-15T13:49:40;10.30;;;2.53;;
54743;SDS011;40639;53.170;6.728;2023-04-15T13:52:06;5.82;;;2.70;;
54743;SDS011;40639;53.170;6.728;2023-04-15T13:54:32;9.15;;;2.15;;
54743;SDS011;40639;53.170;6.728;2023-04-15T13:56:58;6.10;;;2.25;;
54743;SDS011;40639;53.170;6.728;2023-04-15T13:59:25;9.07;;;2.42;;
54743;SDS011;40639;53.170;6.728;2023-04-15T14:01:52;8.88;;;2.63;;
54743;SDS011;40639;53.170;6.728;2023-04-15T14:04:18;7.05;;;2.63;;
54743;SDS011;40639;53.170;6.728;2023-04-15T14:06:44;10.68;;;2.75;;
54743;SDS011;40639;53.170;6.728;2023-04-15T14:09:10;7.85;;;2.60;;
54743;SDS011;40639;53.170;6.728;2023-04-15T14:11:37;8.27;;;2.28;;
54743;SDS011;40639;53.170;6.728;2023-04-15T14:14:03;7.45;;;2.22;;
54743;SDS011;40639;53.170;6.728;2023-04-15T14:16:33;8.63;;;2.47;;
54743;SDS011;40639;53.170;6.728;2023-04-15T14:19:00;6.63;;;2.20;;
54743;SDS011;40639;53.170;6.728;2023-04-15T14:21:26;9.77;;;2.70;;
54743;SDS011;40639;53.170;6.728;2023-04-15T14:23:54;11.27;;;2.83;;
54743;SDS011;40639;53.170;6.728;2023-04-15T14:26:20;10.50;;;2.80;;
54743;SDS011;40639;53.170;6.728;2023-04-15T14:28:46;8.60;;;2.75;;
54743;SDS011;40639;53.170;6.728;2023-04-15T14:31:13;10.48;;;2.72;;
54743;SDS011;40639;53.170;6.728;2023-04-15T14:33:39;9.30;;;2.75;;
54743;SDS011;40639;53.170;6.728;2023-04-15T14:36:06;9.35;;;3.17;;
54743;SDS011;40639;53.170;6.728;2023-04-15T14:38:35;9.35;;;2.63;;
54743;SDS011;40639;53.170;6.728;2023-04-15T14:41:05;6.97;;;2.53;;
54743;SDS011;40639;53.170;6.728;2023-04-15T14:43:35;8.88;;;3.03;;
54743;SDS011;40639;53.170;6.728;2023-04-15T14:46:01;8.68;;;3.13;;
54743;SDS011;40639;53.170;6.728;2023-04-15T14:48:27;9.05;;;2.95;;
54743;SDS011;40639;53.170;6.728;2023-04-15T14:50:53;11.77;;;2.78;;
54743;SDS011;40639;53.170;6.728;2023-04-15T14:53:20;6.78;;;2.80;;
54743;SDS011;40639;53.170;6.728;2023-04-15T14:55:46;9.95;;;3.03;;